Main page
METAR-TAF:

METAR-TAF

Airports :

Duke Field, Florida, United States

latitude: 30-39N, longitude: 086-31W, elevation: 194 ft

Current weather observation

The report was made 4 minutes ago, at 08:56 UTC
Wind 5 mph from the North
Temperature 52°F
Humidity 87%
Pressure 30.03 in. Hg
Visibility: 10 miles
Clear sky

METAR: KEGI 240856Z AUTO 36004KT 10SM CLR 11/09 A3003 RMK AO2 SLP169 T01050093 53002 $

Time: 04:00 (09:00 UTC)

Forecast

The report was made 3 hours and 0 minutes ago, at 06:00 UTC
Forecast valid from 24 at 06 UTC to 25 at 07 UTC
Wind 10 mph from the North
Visibility 6.2 miles or more
Clear sky
Becoming
from 24 at 15 UTC to 24 at 16 UTC
Wind 10 mph from the Northeast
Visibility: 7903 ft
Clear sky

TAF: KEGI 240600Z 2406/2507 35009KT 9999 SKC QNH2998INS BECMG 2415/2416 04009KT 9999 SKC QNH2999INS TX26/2421Z TN11/2412Z LAST NO AMDS AFT 2406 NEXT 2409

Weather observations and forecasts of more than 4000 airports (METAR and TAF reports).

The available stations are represented by yellow and red dots on the map.

Hover mouse over dot to see the name of the station.

Then click to see weather observations and forecasts.

To change the map : click on the green buttons with a black cross to zoom in, on the green button with a dash to zoom out, or on the green arrows for adjacent maps.


METAR-TAF: